createdAt,value
2018-03-08T00:00:09.420Z,70.10
2018-03-08T00:02:37.606Z,70.10
2018-03-08T00:05:05.667Z,70.10
2018-03-08T00:07:33.836Z,70.00
2018-03-08T00:10:01.912Z,70.00
2018-03-08T00:12:29.882Z,70.00
2018-03-08T00:14:57.953Z,70.00
2018-03-08T00:17:26.338Z,70.00
2018-03-08T00:19:54.407Z,70.00
2018-03-08T00:22:22.583Z,70.10
2018-03-08T00:24:50.859Z,70.10
2018-03-08T00:27:18.923Z,69.80
2018-03-08T00:29:46.989Z,70.80
2018-03-08T00:32:15.174Z,70.10
2018-03-08T00:34:43.554Z,70.10
2018-03-08T00:37:11.726Z,70.00
2018-03-08T00:39:39.785Z,70.00
2018-03-08T00:42:07.806Z,70.10
2018-03-08T00:44:36.042Z,70.10
2018-03-08T00:47:04.206Z,70.00
2018-03-08T00:49:32.388Z,70.00
2018-03-08T00:52:00.451Z,70.00
2018-03-08T00:54:28.636Z,70.50
2018-03-08T00:56:56.806Z,70.50
2018-03-08T00:59:25.483Z,70.80
2018-03-08T01:01:53.556Z,69.90
2018-03-08T01:04:21.522Z,70.00
2018-03-08T01:06:50.410Z,69.90
2018-03-08T01:09:18.585Z,70.00
2018-03-08T01:11:46.768Z,70.00
2018-03-08T01:14:14.829Z,70.00
2018-03-08T01:16:43.013Z,70.00
2018-03-08T01:19:11.181Z,69.90
2018-03-08T01:21:39.360Z,70.00
2018-03-08T01:24:07.535Z,70.00
2018-03-08T01:26:35.707Z,69.90
2018-03-08T01:29:03.769Z,70.40
2018-03-08T01:31:31.735Z,70.60
2018-03-08T01:33:59.805Z,69.80
2018-03-08T01:36:27.989Z,69.80
2018-03-08T01:38:56.014Z,69.80
2018-03-08T01:41:24.127Z,69.70
2018-03-08T01:43:52.196Z,69.70
2018-03-08T01:46:20.377Z,69.60
2018-03-08T01:48:49.155Z,69.70
2018-03-08T01:51:17.126Z,69.80
2018-03-08T01:53:45.297Z,69.80
2018-03-08T01:56:13.991Z,69.70
2018-03-08T01:58:42.156Z,69.70
2018-03-08T02:01:10.442Z,69.80
2018-03-08T02:03:38.388Z,69.80
2018-03-08T02:06:06.368Z,69.80
2018-03-08T02:08:34.442Z,69.80
2018-03-08T02:11:02.624Z,69.80
2018-03-08T02:13:30.901Z,69.80
2018-03-08T02:15:58.962Z,70.20
2018-03-08T02:18:27.452Z,69.90
2018-03-08T02:20:55.626Z,69.80
2018-03-08T02:23:23.687Z,69.80
2018-03-08T02:25:51.755Z,69.70
2018-03-08T02:28:19.825Z,69.80
2018-03-08T02:30:47.983Z,69.80
2018-03-08T02:33:16.070Z,69.80
2018-03-08T02:35:44.243Z,69.80
2018-03-08T02:38:12.418Z,69.70
2018-03-08T02:40:40.593Z,69.70
2018-03-08T02:43:08.882Z,69.70
2018-03-08T02:45:37.155Z,69.60
2018-03-08T02:48:05.321Z,69.60
2018-03-08T02:50:33.503Z,70.00
2018-03-08T02:53:01.666Z,69.60
2018-03-08T02:55:29.850Z,69.40
2018-03-08T02:57:58.015Z,69.60
2018-03-08T03:00:26.187Z,70.30
2018-03-08T03:02:54.363Z,69.60
2018-03-08T03:05:22.532Z,69.60
2018-03-08T03:07:50.709Z,69.60
2018-03-08T03:10:18.992Z,69.60
2018-03-08T03:12:47.668Z,69.60
2018-03-08T03:15:15.838Z,69.20
2018-03-08T03:17:44.014Z,69.60
2018-03-08T03:20:14.747Z,69.40
2018-03-08T03:22:43.545Z,69.40
2018-03-08T03:25:11.479Z,69.40
2018-03-08T03:27:39.681Z,69.50
2018-03-08T03:30:07.887Z,69.40
2018-03-08T03:32:36.028Z,69.40
2018-03-08T03:35:04.917Z,69.50
2018-03-08T03:37:32.987Z,69.40
2018-03-08T03:40:01.057Z,70.20
2018-03-08T03:42:29.780Z,69.40
2018-03-08T03:44:58.738Z,69.40
2018-03-08T03:47:26.906Z,69.40
2018-03-08T03:49:55.083Z,69.40
2018-03-08T03:52:23.103Z,69.50
2018-03-08T03:54:51.336Z,69.50
2018-03-08T03:57:19.498Z,69.40
2018-03-08T03:59:47.676Z,69.40
2018-03-08T04:02:15.844Z,69.40
2018-03-08T04:04:44.125Z,69.40
2018-03-08T04:07:12.416Z,69.40
2018-03-08T04:09:41.803Z,69.40
2018-03-08T04:12:09.981Z,69.30
2018-03-08T04:14:38.261Z,69.40
2018-03-08T04:17:06.424Z,69.20
2018-03-08T04:19:34.542Z,69.30
2018-03-08T04:22:02.666Z,69.30
2018-03-08T04:24:30.839Z,69.30
2018-03-08T04:26:59.012Z,69.30
2018-03-08T04:29:27.189Z,69.30
2018-03-08T04:31:55.479Z,69.30
2018-03-08T04:34:24.467Z,69.30
2018-03-08T04:36:52.742Z,69.20
2018-03-08T04:39:20.907Z,69.60
2018-03-08T04:41:49.078Z,69.00
2018-03-08T04:44:17.972Z,69.30
2018-03-08T04:46:46.038Z,69.30
2018-03-08T04:49:14.326Z,69.30
2018-03-08T04:51:43.102Z,69.30
2018-03-08T04:54:11.279Z,69.30
2018-03-08T04:56:39.461Z,69.20
2018-03-08T04:59:07.737Z,69.20
2018-03-08T05:01:36.720Z,69.10
2018-03-08T05:04:04.895Z,69.20
2018-03-08T05:06:33.067Z,69.10
2018-03-08T05:09:03.801Z,69.20
2018-03-08T05:11:31.976Z,69.10
2018-03-08T05:14:00.260Z,69.10
2018-03-08T05:16:28.421Z,69.10
2018-03-08T05:18:56.597Z,69.10
2018-03-08T05:21:24.882Z,69.10
2018-03-08T05:23:53.048Z,69.10
2018-03-08T05:26:21.734Z,69.90
2018-03-08T05:28:49.906Z,69.10
2018-03-08T05:31:18.189Z,69.10
2018-03-08T05:33:46.466Z,69.10
2018-03-08T05:36:14.632Z,69.20
2018-03-08T05:38:42.804Z,69.20
2018-03-08T05:41:10.975Z,69.20
2018-03-08T05:43:39.150Z,69.20
2018-03-08T05:46:07.324Z,69.20
2018-03-08T05:48:35.674Z,69.20
2018-03-08T05:51:03.879Z,69.20
2018-03-08T05:53:32.877Z,69.10
2018-03-08T05:56:01.039Z,69.20
2018-03-08T05:58:29.216Z,69.20
2018-03-08T06:00:57.999Z,69.30
2018-03-08T06:03:26.178Z,69.30
2018-03-08T06:05:54.462Z,69.30
2018-03-08T06:08:23.135Z,69.20
2018-03-08T06:10:51.313Z,69.90
2018-03-08T06:13:19.481Z,69.30
2018-03-08T06:15:47.660Z,69.30
2018-03-08T06:18:15.942Z,69.20
2018-03-08T06:20:44.109Z,69.20
2018-03-08T06:23:12.278Z,69.20
2018-03-08T06:25:40.565Z,69.20
2018-03-08T06:28:08.842Z,69.10
2018-03-08T06:30:37.121Z,69.10
2018-03-08T06:33:05.281Z,69.10
2018-03-08T06:35:34.887Z,69.10
2018-03-08T06:38:03.071Z,69.10
2018-03-08T06:40:31.347Z,69.00
2018-03-08T06:42:59.406Z,69.10
2018-03-08T06:45:27.586Z,69.00
2018-03-08T06:47:55.868Z,69.10
2018-03-08T06:50:24.148Z,69.10
2018-03-08T06:52:52.419Z,69.70
2018-03-08T06:55:20.587Z,69.10
2018-03-08T06:57:48.754Z,69.00
2018-03-08T07:00:18.361Z,69.10
2018-03-08T07:02:46.536Z,69.10
2018-03-08T07:05:14.925Z,69.00
2018-03-08T07:07:43.201Z,69.00
2018-03-08T07:10:11.362Z,68.90
2018-03-08T07:12:39.536Z,69.10
2018-03-08T07:15:09.143Z,68.60
2018-03-08T07:17:37.321Z,68.60
2018-03-08T07:20:05.707Z,68.50
2018-03-08T07:22:33.982Z,68.40
2018-03-08T07:25:02.261Z,68.40
2018-03-08T07:27:30.423Z,68.30
2018-03-08T07:29:58.599Z,68.40
2018-03-08T07:32:26.771Z,68.30
2018-03-08T07:34:55.056Z,68.20
2018-03-08T07:37:23.330Z,68.00
2018-03-08T07:39:51.497Z,67.90
2018-03-08T07:42:19.592Z,67.80
2018-03-08T07:44:48.458Z,68.30
2018-03-08T07:47:17.349Z,67.40
2018-03-08T07:49:45.517Z,67.40
2018-03-08T07:52:13.805Z,67.20
2018-03-08T07:54:42.080Z,67.10
2018-03-08T07:57:10.359Z,66.50
2018-03-08T07:59:38.518Z,67.00
2018-03-08T08:02:06.704Z,67.00
2018-03-08T08:04:46.334Z,67.00
2018-03-08T08:07:26.287Z,67.00
2018-03-08T08:09:54.572Z,66.80
2018-03-08T08:12:23.564Z,67.00
2018-03-08T08:14:51.839Z,66.40
2018-03-08T08:17:20.718Z,66.50
2018-03-08T08:19:48.788Z,66.10
2018-03-08T08:22:16.963Z,65.90
2018-03-08T08:24:45.136Z,65.80
2018-03-08T08:27:13.310Z,65.60
2018-03-08T08:29:42.203Z,65.10
2018-03-08T08:32:10.989Z,65.20
2018-03-08T08:34:39.165Z,65.00
2018-03-08T08:37:07.346Z,64.90
2018-03-08T08:39:35.514Z,64.80
2018-03-08T08:42:03.682Z,63.80
2018-03-08T08:44:31.859Z,63.40
2018-03-08T08:47:00.860Z,64.10
2018-03-08T08:49:29.026Z,63.30
2018-03-08T08:51:57.926Z,63.10
2018-03-08T08:54:27.431Z,63.00
2018-03-08T08:56:56.046Z,62.80
2018-03-08T08:59:24.997Z,62.70
2018-03-08T09:01:53.889Z,62.60
2018-03-08T09:04:22.058Z,62.60
2018-03-08T09:06:50.342Z,62.30
2018-03-08T09:09:18.510Z,62.20
2018-03-08T09:11:48.116Z,62.00
2018-03-08T09:14:16.698Z,61.90
2018-03-08T09:16:44.982Z,61.90
2018-03-08T09:19:13.144Z,61.80
2018-03-08T09:21:41.433Z,61.70
2018-03-08T09:24:10.311Z,62.00
2018-03-08T09:26:38.484Z,61.70
2018-03-08T09:29:07.270Z,61.70
2018-03-08T09:31:35.450Z,61.60
2018-03-08T09:34:03.627Z,61.60
2018-03-08T09:36:31.795Z,61.30
2018-03-08T09:39:00.080Z,61.00
2018-03-08T09:41:28.242Z,60.70
2018-03-08T09:43:56.529Z,60.50
2018-03-08T09:46:24.805Z,60.20
2018-03-08T09:48:52.966Z,60.30
2018-03-08T09:51:23.721Z,60.10
2018-03-08T09:53:52.745Z,60.00
2018-03-08T09:56:21.623Z,60.00
2018-03-08T09:58:50.372Z,59.80
2018-03-08T10:01:19.374Z,59.50
2018-03-08T10:03:48.572Z,59.10
2018-03-08T10:06:17.558Z,58.90
2018-03-08T10:08:45.624Z,58.90
2018-03-08T10:11:14.519Z,58.80
2018-03-08T10:13:42.688Z,58.60
2018-03-08T10:16:11.374Z,58.30
2018-03-08T10:18:39.546Z,58.00
2018-03-08T10:21:07.719Z,57.80
2018-03-08T10:23:35.797Z,57.60
2018-03-08T10:26:05.630Z,56.60
2018-03-08T10:28:34.607Z,56.00
2018-03-08T10:31:02.769Z,55.90
2018-03-08T10:33:31.661Z,55.40
2018-03-08T10:35:59.837Z,55.30
2018-03-08T10:38:28.121Z,55.00
2018-03-08T10:40:56.442Z,54.70
2018-03-08T10:43:24.672Z,54.50
2018-03-08T10:45:52.840Z,54.50
2018-03-08T10:48:21.012Z,54.50
2018-03-08T10:50:49.187Z,53.80
2018-03-08T10:53:18.075Z,52.60
2018-03-08T10:55:47.075Z,52.40
2018-03-08T10:58:15.236Z,52.40
2018-03-08T11:00:47.322Z,53.00
2018-03-08T11:03:16.293Z,51.80
2018-03-08T11:05:47.135Z,52.00
2018-03-08T11:08:16.844Z,51.70
2018-03-08T11:10:45.013Z,51.60
2018-03-08T11:13:13.083Z,51.40
2018-03-08T11:15:41.372Z,51.00
2018-03-08T11:18:09.583Z,50.70
2018-03-08T11:20:38.428Z,50.10
2018-03-08T11:23:06.598Z,49.70
2018-03-08T11:25:34.770Z,48.90
2018-03-08T11:28:03.526Z,48.40
2018-03-08T11:30:31.845Z,47.80
2018-03-08T11:33:00.006Z,47.20
2018-03-08T11:35:28.192Z,46.70
2018-03-08T11:37:58.205Z,46.00
2018-03-08T11:40:26.484Z,45.90
2018-03-08T11:42:55.354Z,45.60
2018-03-08T11:45:22.993Z,45.00
2018-03-08T11:47:51.103Z,44.70
2018-03-08T11:50:19.269Z,44.50
2018-03-08T11:52:47.446Z,44.20
2018-03-08T11:55:15.620Z,43.40
2018-03-08T11:57:44.303Z,43.00
2018-03-08T12:00:12.502Z,42.50
2018-03-08T12:02:41.365Z,41.70
2018-03-08T12:05:09.543Z,41.60
2018-03-08T12:07:37.827Z,41.40
2018-03-08T12:10:05.989Z,41.00
2018-03-08T12:12:34.059Z,40.40
2018-03-08T12:15:02.131Z,40.10
2018-03-08T12:17:30.304Z,39.80
2018-03-08T12:19:58.990Z,39.40
2018-03-08T12:22:27.042Z,39.00
2018-03-08T12:24:55.131Z,39.10
2018-03-08T12:27:23.419Z,39.10
2018-03-08T12:29:51.581Z,39.10
2018-03-08T12:32:20.790Z,38.90
2018-03-08T12:34:49.066Z,38.60
2018-03-08T12:37:17.231Z,38.20
2018-03-08T12:39:45.515Z,38.20
2018-03-08T12:42:13.677Z,38.00
2018-03-08T12:44:41.964Z,37.60
2018-03-08T12:47:10.132Z,38.00
2018-03-08T12:49:38.199Z,37.10
2018-03-08T12:52:06.375Z,36.80
2018-03-08T12:54:35.272Z,36.40
2018-03-08T12:57:03.434Z,36.10
2018-03-08T12:59:31.721Z,35.70
2018-03-08T13:01:59.884Z,35.50
2018-03-08T13:04:28.785Z,35.60
2018-03-08T13:06:57.049Z,35.30
2018-03-08T13:09:25.223Z,35.30
2018-03-08T13:11:53.510Z,34.70
2018-03-08T13:14:21.680Z,34.40
2018-03-08T13:16:50.191Z,34.10
2018-03-08T13:19:21.669Z,33.50
2018-03-08T13:21:49.781Z,33.50
2018-03-08T13:24:17.955Z,33.40
2018-03-08T13:26:46.129Z,33.60
2018-03-08T13:29:14.917Z,33.50
2018-03-08T13:31:42.985Z,33.50
2018-03-08T13:34:11.269Z,33.70
2018-03-08T13:36:39.547Z,33.90
2018-03-08T13:39:07.707Z,34.30
2018-03-08T13:41:36.507Z,34.90
2018-03-08T13:44:05.502Z,35.80
2018-03-08T13:46:33.666Z,35.60
2018-03-08T13:49:13.397Z,37.20
2018-03-08T13:51:42.200Z,37.00
2018-03-08T13:54:10.484Z,37.20
2018-03-08T13:56:38.644Z,37.40
2018-03-08T13:59:06.720Z,37.50
2018-03-08T14:01:35.105Z,37.70
2018-03-08T14:04:03.271Z,38.10
2018-03-08T14:06:31.561Z,38.30
2018-03-08T14:09:00.193Z,38.40
2018-03-08T14:11:28.412Z,38.50
2018-03-08T14:13:56.679Z,38.10
2018-03-08T14:16:24.852Z,37.70
2018-03-08T14:18:52.922Z,37.80
2018-03-08T14:21:21.099Z,37.90
2018-03-08T14:23:49.281Z,38.10
2018-03-08T14:26:17.442Z,38.60
2018-03-08T14:28:45.513Z,39.00
2018-03-08T14:31:13.800Z,39.30
2018-03-08T14:33:41.963Z,39.40
2018-03-08T14:36:10.251Z,39.70
2018-03-08T14:38:39.031Z,39.40
2018-03-08T14:41:07.200Z,39.30
2018-03-08T14:43:35.378Z,39.20
2018-03-08T14:46:04.162Z,39.00
2018-03-08T14:48:32.339Z,38.70
2018-03-08T14:51:00.621Z,38.50
2018-03-08T14:53:29.505Z,39.10
2018-03-08T14:55:57.678Z,39.10
2018-03-08T14:58:25.964Z,39.40
2018-03-08T15:00:54.844Z,39.80
2018-03-08T15:03:23.016Z,39.70
2018-03-08T15:05:51.193Z,40.10
2018-03-08T15:08:19.360Z,40.20
2018-03-08T15:10:47.647Z,40.10
2018-03-08T15:13:15.812Z,40.00
2018-03-08T15:15:43.780Z,40.00
2018-03-08T15:18:11.955Z,40.00
2018-03-08T15:20:40.238Z,39.80
2018-03-08T15:23:08.407Z,39.90
2018-03-08T15:25:36.579Z,39.90
2018-03-08T15:28:07.422Z,39.80
2018-03-08T15:30:35.583Z,39.50
2018-03-08T15:33:03.762Z,39.10
2018-03-08T15:35:31.936Z,38.60
2018-03-08T15:38:00.110Z,38.50
2018-03-08T15:40:28.391Z,38.60
2018-03-08T15:42:56.553Z,38.70
2018-03-08T15:45:24.842Z,39.10
2018-03-08T15:47:53.003Z,37.70
2018-03-08T15:50:21.179Z,37.90
2018-03-08T15:52:49.350Z,38.30
2018-03-08T15:55:18.957Z,37.90
2018-03-08T15:57:48.564Z,37.80
2018-03-08T16:00:18.278Z,38.10
2018-03-08T16:02:46.446Z,38.00
2018-03-08T16:05:15.132Z,38.50
2018-03-08T16:08:08.201Z,39.00
2018-03-08T16:10:37.184Z,39.20
2018-03-08T16:13:06.071Z,40.20
2018-03-08T16:15:34.246Z,40.20
2018-03-08T16:18:02.418Z,40.40
2018-03-08T16:20:32.344Z,40.90
2018-03-08T16:23:01.226Z,40.70
2018-03-08T16:25:30.230Z,40.30
2018-03-08T16:27:58.393Z,40.30
2018-03-08T16:30:26.565Z,40.50
2018-03-08T16:32:56.387Z,39.60
2018-03-08T16:35:25.378Z,39.60
2018-03-08T16:37:54.263Z,39.50
2018-03-08T16:40:22.434Z,39.60
2018-03-08T16:42:51.117Z,39.60
2018-03-08T16:45:19.294Z,39.70
2018-03-08T16:47:47.578Z,39.90
2018-03-08T16:50:16.457Z,39.70
2018-03-08T16:52:44.630Z,39.70
2018-03-08T16:55:12.804Z,39.50
2018-03-08T16:57:40.878Z,39.60
2018-03-08T17:00:09.048Z,39.30
2018-03-08T17:02:38.770Z,39.30
2018-03-08T17:05:06.943Z,39.20
2018-03-08T17:07:35.955Z,39.20
2018-03-08T17:10:04.917Z,39.10
2018-03-08T17:12:34.739Z,39.10
2018-03-08T17:15:04.667Z,39.20
2018-03-08T17:17:33.533Z,39.30
2018-03-08T17:20:01.807Z,39.20
2018-03-08T17:22:29.990Z,39.40
2018-03-08T17:24:58.876Z,39.60
2018-03-08T17:27:26.942Z,39.70
2018-03-08T17:29:55.747Z,39.90
2018-03-08T17:32:26.430Z,40.20
2018-03-08T17:34:55.167Z,40.40
2018-03-08T17:37:24.154Z,41.40
2018-03-08T17:39:52.318Z,41.30
2018-03-08T17:42:20.451Z,42.00
2018-03-08T17:44:49.379Z,42.30
2018-03-08T17:47:17.667Z,42.30
2018-03-08T17:49:45.943Z,42.50
2018-03-08T17:52:14.104Z,42.80
2018-03-08T17:54:42.278Z,43.20
2018-03-08T17:57:10.565Z,43.50
2018-03-08T17:59:39.046Z,43.70
2018-03-08T18:02:07.333Z,44.10
2018-03-08T18:04:36.310Z,44.10
2018-03-08T18:07:04.855Z,44.00
2018-03-08T18:09:33.059Z,44.20
2018-03-08T18:12:01.232Z,44.20
2018-03-08T18:14:29.521Z,44.10
2018-03-08T18:16:57.797Z,44.00
2018-03-08T18:19:25.964Z,44.00
2018-03-08T18:21:54.132Z,44.50
2018-03-08T18:24:22.305Z,43.90
2018-03-08T18:26:50.592Z,43.80
2018-03-08T18:29:19.381Z,43.80
2018-03-08T18:31:47.657Z,43.90
2018-03-08T18:34:16.037Z,43.80
2018-03-08T18:36:44.817Z,44.20
2018-03-08T18:39:13.097Z,44.00
2018-03-08T18:41:41.979Z,44.10
2018-03-08T18:44:10.155Z,44.10
2018-03-08T18:46:38.323Z,44.20
2018-03-08T18:49:06.499Z,44.30
2018-03-08T18:51:34.568Z,44.40
2018-03-08T18:54:02.754Z,44.50
2018-03-08T18:56:30.915Z,44.60
2018-03-08T18:58:59.154Z,44.70
2018-03-08T19:01:27.581Z,44.80
2018-03-08T19:03:55.640Z,44.90
2018-03-08T19:06:24.837Z,45.00
2018-03-08T19:08:53.220Z,44.90
2018-03-08T19:11:22.207Z,45.20
2018-03-08T19:13:51.118Z,45.20
2018-03-08T19:16:19.994Z,45.40
2018-03-08T19:18:48.169Z,45.40
2018-03-08T19:21:17.053Z,45.50
2018-03-08T19:23:45.348Z,45.70
2018-03-08T19:26:14.326Z,45.90
2018-03-08T19:28:42.497Z,45.80
2018-03-08T19:31:10.673Z,46.00
2018-03-08T19:33:38.844Z,46.10
2018-03-08T19:36:07.014Z,46.10
2018-03-08T19:38:36.327Z,46.20
2018-03-08T19:41:04.779Z,46.40
2018-03-08T19:43:32.867Z,46.50
2018-03-08T19:46:01.156Z,46.60
2018-03-08T19:48:29.431Z,46.70
2018-03-08T19:50:57.598Z,46.70
2018-03-08T19:53:25.967Z,46.80
2018-03-08T19:55:54.452Z,46.80
2018-03-08T19:58:22.739Z,46.90
2018-03-08T20:00:53.678Z,46.90
2018-03-08T20:03:21.838Z,47.00
2018-03-08T20:05:50.126Z,47.10
2018-03-08T20:08:19.118Z,47.90
2018-03-08T20:10:47.196Z,47.20
2018-03-08T20:13:16.210Z,48.00
2018-03-08T20:15:44.353Z,47.40
2018-03-08T20:18:12.517Z,47.50
2018-03-08T20:20:40.691Z,47.50
2018-03-08T20:23:08.981Z,47.60
2018-03-08T20:25:38.334Z,47.70
2018-03-08T20:28:06.440Z,47.90
2018-03-08T20:30:34.730Z,48.00
2018-03-08T20:33:02.889Z,48.10
2018-03-08T20:35:31.063Z,48.10
2018-03-08T20:37:59.036Z,48.20
2018-03-08T20:40:27.319Z,49.20
2018-03-08T20:42:56.200Z,49.50
2018-03-08T20:45:24.377Z,49.50
2018-03-08T20:47:52.659Z,49.60
2018-03-08T20:50:20.934Z,49.70
2018-03-08T20:52:49.098Z,49.80
2018-03-08T20:55:17.384Z,50.50
2018-03-08T20:57:48.109Z,50.10
2018-03-08T21:00:16.279Z,50.10
2018-03-08T21:02:44.567Z,50.20
2018-03-08T21:05:13.450Z,50.30
2018-03-08T21:07:41.731Z,50.40
2018-03-08T21:10:09.900Z,50.00
2018-03-08T21:12:38.070Z,50.50
2018-03-08T21:15:06.961Z,50.70
2018-03-08T21:17:37.906Z,50.70
2018-03-08T21:20:07.723Z,51.10
2018-03-08T21:22:37.519Z,51.00
2018-03-08T21:25:05.698Z,51.00
2018-03-08T21:27:33.985Z,51.10
2018-03-08T21:30:03.481Z,51.20
2018-03-08T21:32:31.865Z,51.30
2018-03-08T21:35:00.857Z,51.60
2018-03-08T21:37:29.736Z,52.00
2018-03-08T21:39:57.909Z,51.50
2018-03-08T21:42:26.094Z,51.60
2018-03-08T21:44:54.975Z,51.90
2018-03-08T21:47:23.146Z,51.80
2018-03-08T21:49:51.320Z,51.80
2018-03-08T21:52:19.493Z,51.80
2018-03-08T21:54:48.384Z,51.90
2018-03-08T21:57:16.454Z,52.10
2018-03-08T21:59:44.742Z,52.10
2018-03-08T22:02:13.623Z,52.30
2018-03-08T22:04:41.907Z,52.30
2018-03-08T22:07:11.003Z,53.20
2018-03-08T22:09:39.887Z,52.90
2018-03-08T22:12:08.126Z,52.50
2018-03-08T22:14:36.445Z,52.70
2018-03-08T22:17:04.610Z,52.80
2018-03-08T22:19:32.779Z,52.80
2018-03-08T22:22:00.958Z,52.90
2018-03-08T22:24:29.100Z,52.90
2018-03-08T22:26:57.203Z,53.00
2018-03-08T22:29:25.402Z,53.10
2018-03-08T22:31:54.376Z,53.20
2018-03-08T22:34:23.151Z,53.20
2018-03-08T22:36:51.439Z,53.30
2018-03-08T22:39:20.325Z,53.90
2018-03-08T22:41:48.492Z,53.30
2018-03-08T22:44:16.664Z,53.90
2018-03-08T22:46:44.841Z,53.40
2018-03-08T22:49:13.017Z,53.50
2018-03-08T22:51:41.819Z,53.50
2018-03-08T22:54:10.697Z,53.50
2018-03-08T22:56:38.865Z,53.50
2018-03-08T22:59:07.755Z,53.60
2018-03-08T23:04:52.434Z,53.60
2018-03-08T23:07:21.439Z,53.60
2018-03-08T23:09:49.603Z,53.70
2018-03-08T23:12:17.774Z,53.70
2018-03-08T23:14:45.946Z,53.80
2018-03-08T23:17:13.919Z,53.80
2018-03-08T23:19:42.094Z,53.80
2018-03-08T23:22:10.377Z,53.90
2018-03-08T23:24:39.882Z,53.90
2018-03-08T23:27:08.048Z,54.50
2018-03-08T23:29:37.047Z,54.00
2018-03-08T23:32:05.210Z,54.10
2018-03-08T23:34:33.280Z,54.10
2018-03-08T23:37:01.356Z,54.10
2018-03-08T23:39:29.527Z,54.10
2018-03-08T23:41:57.600Z,54.10
2018-03-08T23:44:25.769Z,54.20
2018-03-08T23:46:54.978Z,54.30
2018-03-08T23:49:23.045Z,54.30
2018-03-08T23:51:51.830Z,54.50
2018-03-08T23:54:20.116Z,54.40
2018-03-08T23:56:48.275Z,54.40
2018-03-08T23:59:16.870Z,54.30
